Main page
METAR-TAF:

METAR-TAF

Airports :

Zahedan Airport

Zahedan, Iran

latitude: 29-28N, longitude: 060-53E, elevation: 1370 m

Current weather observation

The report was made 36 minutes ago, at 21:00 UTC
Calm wind
Temperature 9°C
Humidity 46%
Pressure 1024 hPa
Visibility 10 km or more
no clouds below 1500 m and no cumulonimbus

METAR: OIZH 282100Z 00000KT CAVOK 09/M02 Q1024 A3024

Time: 01:06 (21:36 UTC)

Forecast

The report was made 4 hours and 6 minutes ago, at 17:30 UTC
Forecast valid from 28 at 18 UTC to 29 at 24 UTC
Wind 6 kt from the North/Northeast
Visibility: 8000 m
Few clouds at a height of 4000 ft
Temporary
from 29 at 12 UTC to 29 at 17 UTC
Wind 16 kt from the North/Northeast

TAF: OIZH 281730Z 2818/2924 03006KT 8000 FEW040 TEMPO 2912/2917 03016KT

Weather observations and forecasts of more than 4000 airports (METAR and TAF reports).

The available stations are represented by yellow and red dots on the map.

Hover mouse over dot to see the name of the station.

Then click to see weather observations and forecasts.

To change the map : click on the green buttons with a black cross to zoom in, on the green button with a dash to zoom out, or on the green arrows for adjacent maps.


METAR-TAF: